createdAt,value
2023-10-18T00:01:33.764Z,1004.81
2023-10-18T00:06:33.538Z,1004.94
2023-10-18T00:11:33.479Z,1004.73
2023-10-18T00:16:33.404Z,1004.80
2023-10-18T00:21:33.339Z,1004.81
2023-10-18T00:26:33.278Z,1004.76
2023-10-18T00:31:33.342Z,1004.65
2023-10-18T00:36:33.158Z,1004.61
2023-10-18T00:41:33.144Z,1004.56
2023-10-18T00:46:33.058Z,1004.61
2023-10-18T00:51:32.972Z,1004.50
2023-10-18T00:56:32.893Z,1004.46
2023-10-18T01:01:32.915Z,1004.44
2023-10-18T01:06:32.846Z,1004.51
2023-10-18T01:11:32.744Z,1004.40
2023-10-18T01:16:33.046Z,1004.45
2023-10-18T01:21:32.569Z,1004.39
2023-10-18T01:26:32.523Z,1004.36
2023-10-18T01:31:32.547Z,1004.44
2023-10-18T01:36:32.376Z,1004.33
2023-10-18T01:41:32.314Z,1004.32
2023-10-18T01:46:32.301Z,1004.29
2023-10-18T01:51:32.181Z,1004.16
2023-10-18T01:56:32.129Z,1004.17
2023-10-18T02:01:32.092Z,1004.03
2023-10-18T02:06:32.013Z,1004.06
2023-10-18T02:11:31.932Z,1003.90
2023-10-18T02:16:31.893Z,1003.76
2023-10-18T02:21:31.834Z,1003.85
2023-10-18T02:26:32.648Z,1003.82
2023-10-18T02:31:31.879Z,1003.83
2023-10-18T02:36:31.695Z,1003.70
2023-10-18T02:41:31.544Z,1003.71
2023-10-18T02:46:31.545Z,1003.87
2023-10-18T02:51:31.432Z,1003.80
2023-10-18T02:56:31.344Z,1003.73
2023-10-18T03:01:31.358Z,1003.78
2023-10-18T03:06:31.213Z,1003.70
2023-10-18T03:11:31.141Z,1003.59
2023-10-18T03:16:31.135Z,1003.60
2023-10-18T03:21:31.017Z,1003.42
2023-10-18T03:26:31.441Z,1003.39
2023-10-18T03:31:30.989Z,1003.45
2023-10-18T03:36:30.826Z,1003.50
2023-10-18T03:41:30.757Z,1003.52
2023-10-18T03:46:30.818Z,1003.42
2023-10-18T03:51:30.641Z,1003.62
2023-10-18T03:56:30.581Z,1003.44
2023-10-18T04:01:30.595Z,1003.38
2023-10-18T04:06:30.496Z,1003.14
2023-10-18T04:11:30.381Z,1003.19
2023-10-18T04:16:30.315Z,1003.18
2023-10-18T04:21:30.252Z,1003.24
2023-10-18T04:26:30.301Z,1003.09
2023-10-18T04:31:30.136Z,1003.10
2023-10-18T04:36:31.187Z,1003.06
2023-10-18T04:41:30.019Z,1003.04
2023-10-18T04:46:30.119Z,1003.03
2023-10-18T04:51:29.859Z,1003.02
2023-10-18T04:56:29.793Z,1002.91
2023-10-18T05:01:29.779Z,1002.91
2023-10-18T05:06:29.660Z,1003.04
2023-10-18T05:11:29.587Z,1003.01
2023-10-18T05:16:29.701Z,1002.99
2023-10-18T05:21:29.476Z,1002.95
2023-10-18T05:26:29.409Z,1002.78
2023-10-18T05:31:29.363Z,1002.79
2023-10-18T05:36:29.282Z,1002.88
2023-10-18T05:41:29.231Z,1002.90
2023-10-18T05:46:29.330Z,1002.96
2023-10-18T05:56:29.034Z,1003.02
2023-10-18T06:01:29.102Z,1003.03
2023-10-18T06:06:28.899Z,1002.91
2023-10-18T06:11:28.831Z,1003.02
2023-10-18T06:16:28.876Z,1002.91
2023-10-18T06:21:28.736Z,1002.78
2023-10-18T06:26:28.644Z,1003.00
2023-10-18T06:31:28.647Z,1002.98
2023-10-18T06:36:28.516Z,1002.75
2023-10-18T06:41:28.432Z,1002.75
2023-10-18T06:46:29.678Z,1002.74
2023-10-18T06:51:28.371Z,1002.75
2023-10-18T06:56:28.235Z,1002.60
2023-10-18T07:01:28.227Z,1002.59
2023-10-18T07:06:28.104Z,1002.53
2023-10-18T07:11:38.235Z,1002.56
2023-10-18T07:16:29.057Z,1002.48
2023-10-18T07:21:27.907Z,1002.38
2023-10-18T07:26:27.852Z,1002.29
2023-10-18T07:31:27.901Z,1002.27
2023-10-18T07:36:27.727Z,1002.12
2023-10-18T07:41:28.122Z,1002.00
2023-10-18T07:46:27.617Z,1001.91
2023-10-18T07:51:28.254Z,1001.84
2023-10-18T07:56:27.496Z,1001.68
2023-10-18T08:01:27.426Z,1001.52
2023-10-18T08:06:27.415Z,1001.52
2023-10-18T08:11:27.247Z,1001.46
2023-10-18T08:16:27.241Z,1001.38
2023-10-18T08:21:27.459Z,1001.51
2023-10-18T08:26:27.053Z,1001.38
2023-10-18T08:31:27.024Z,1001.38
2023-10-18T08:36:28.629Z,1001.46
2023-10-18T08:41:26.859Z,1001.25
2023-10-18T08:46:26.858Z,1001.24
2023-10-18T08:51:26.720Z,1001.16
2023-10-18T08:56:26.667Z,1001.22
2023-10-18T09:01:26.687Z,1001.17
2023-10-18T09:06:26.556Z,1001.13
2023-10-18T09:11:26.461Z,1001.03
2023-10-18T09:16:26.474Z,1001.06
2023-10-18T09:21:26.352Z,1000.97
2023-10-18T09:26:26.276Z,1000.98
2023-10-18T09:31:26.273Z,1001.08
2023-10-18T09:36:26.183Z,1001.07
2023-10-18T09:41:26.072Z,1000.89
2023-10-18T09:46:26.157Z,1000.85
2023-10-18T09:51:25.965Z,1000.72
2023-10-18T09:56:26.203Z,1000.76
2023-10-18T10:01:25.931Z,1000.70
2023-10-18T10:06:25.755Z,1000.68
2023-10-18T10:11:25.714Z,1000.65
2023-10-18T10:16:26.143Z,1000.62
2023-10-18T10:21:25.569Z,1000.65
2023-10-18T10:26:32.788Z,1000.56
2023-10-18T10:31:26.469Z,1000.38
2023-10-18T10:36:25.422Z,1000.43
2023-10-18T10:41:25.306Z,1000.35
2023-10-18T10:46:25.325Z,1000.38
2023-10-18T10:51:25.174Z,1000.25
2023-10-18T10:56:25.122Z,1000.25
2023-10-18T11:01:25.106Z,1000.22
2023-10-18T11:06:24.991Z,1000.03
2023-10-18T11:11:24.939Z,999.92
2023-10-18T11:16:24.944Z,999.82
2023-10-18T11:21:24.780Z,999.69
2023-10-18T11:26:24.728Z,999.70
2023-10-18T11:31:24.830Z,999.58
2023-10-18T11:36:24.578Z,999.50
2023-10-18T11:41:24.514Z,999.44
2023-10-18T11:46:24.568Z,999.34
2023-10-18T11:51:24.412Z,999.25
2023-10-18T11:56:24.333Z,999.27
2023-10-18T12:01:24.307Z,999.22
2023-10-18T12:06:24.181Z,999.11
2023-10-18T12:11:24.114Z,998.97
2023-10-18T12:16:24.225Z,998.90
2023-10-18T12:21:23.977Z,998.85
2023-10-18T12:26:23.918Z,998.71
2023-10-18T12:31:23.916Z,998.82
2023-10-18T12:36:23.821Z,998.68
2023-10-18T12:41:23.717Z,998.65
2023-10-18T12:46:23.852Z,998.48
2023-10-18T12:51:24.332Z,998.42
2023-10-18T12:56:23.570Z,998.25
2023-10-18T13:01:23.473Z,998.13
2023-10-18T13:06:23.392Z,998.15
2023-10-18T13:11:23.491Z,998.09
2023-10-18T13:16:23.312Z,998.04
2023-10-18T13:21:23.201Z,997.99
2023-10-18T13:26:23.179Z,998.00
2023-10-18T13:31:23.088Z,997.96
2023-10-18T13:36:23.032Z,997.89
2023-10-18T13:41:22.959Z,997.89
2023-10-18T13:46:22.870Z,997.77
2023-10-18T13:51:23.160Z,997.74
2023-10-18T13:56:22.881Z,997.61
2023-10-18T14:01:24.456Z,997.59
2023-10-18T14:06:29.966Z,997.43
2023-10-18T14:11:24.351Z,997.44
2023-10-18T14:16:22.487Z,997.41
2023-10-18T14:21:22.438Z,997.39
2023-10-18T14:26:22.350Z,997.29
2023-10-18T14:31:22.302Z,997.28
2023-10-18T14:36:23.415Z,997.12
2023-10-18T14:41:31.659Z,997.17
2023-10-18T14:46:23.103Z,997.12
2023-10-18T14:51:22.012Z,997.04
2023-10-18T14:56:21.985Z,996.96
2023-10-18T15:01:21.936Z,996.91
2023-10-18T15:06:21.806Z,996.87
2023-10-18T15:11:21.754Z,996.84
2023-10-18T15:16:21.694Z,996.69
2023-10-18T15:21:21.658Z,996.75
2023-10-18T15:26:21.651Z,996.77
2023-10-18T15:31:21.612Z,996.72
2023-10-18T15:36:21.418Z,996.70
2023-10-18T15:41:21.998Z,996.62
2023-10-18T15:46:21.383Z,996.65
2023-10-18T15:51:21.231Z,996.67
2023-10-18T15:56:21.204Z,996.65
2023-10-18T16:01:21.155Z,996.59
2023-10-18T16:06:21.112Z,996.54
2023-10-18T16:11:20.970Z,996.39
2023-10-18T16:16:20.982Z,996.35
2023-10-18T16:21:20.836Z,996.25
2023-10-18T16:26:20.798Z,996.36
2023-10-18T16:31:21.270Z,996.22
2023-10-18T16:36:20.604Z,996.19
2023-10-18T16:41:20.548Z,996.12
2023-10-18T16:46:20.534Z,996.21
2023-10-18T16:51:20.409Z,996.13
2023-10-18T16:56:20.373Z,996.05
2023-10-18T17:01:20.306Z,995.93
2023-10-18T17:06:20.269Z,995.90
2023-10-18T17:11:20.250Z,995.82
2023-10-18T17:16:20.151Z,995.76
2023-10-18T17:21:20.839Z,995.64
2023-10-18T17:26:20.024Z,995.52
2023-10-18T17:31:19.950Z,995.49
2023-10-18T17:36:20.542Z,995.53
2023-10-18T17:41:19.763Z,995.45
2023-10-18T17:46:19.720Z,995.36
2023-10-18T17:51:19.626Z,995.33
2023-10-18T17:56:19.823Z,995.20
2023-10-18T18:01:19.514Z,995.07
2023-10-18T18:06:19.481Z,994.94
2023-10-18T18:11:19.410Z,994.89
2023-10-18T18:16:19.338Z,994.77
2023-10-18T18:21:19.262Z,994.83
2023-10-18T18:26:20.467Z,994.76
2023-10-18T18:31:19.169Z,994.66
2023-10-18T18:36:19.042Z,994.61
2023-10-18T18:41:19.009Z,994.49
2023-10-18T18:46:31.328Z,994.44
2023-10-18T18:51:19.861Z,994.36
2023-10-18T18:56:21.825Z,994.36
2023-10-18T19:01:18.729Z,994.24
2023-10-18T19:06:18.667Z,994.32
2023-10-18T19:11:18.635Z,994.21
2023-10-18T19:16:18.574Z,994.20
2023-10-18T19:21:18.452Z,994.04
2023-10-18T19:26:18.439Z,993.93
2023-10-18T19:31:18.390Z,993.87
2023-10-18T19:36:18.277Z,993.71
2023-10-18T19:41:18.611Z,993.58
2023-10-18T19:46:18.203Z,993.51
2023-10-18T19:51:18.102Z,993.53
2023-10-18T19:56:18.074Z,993.42
2023-10-18T20:01:17.980Z,993.30
2023-10-18T20:06:19.423Z,993.39
2023-10-18T20:11:17.879Z,993.17
2023-10-18T20:16:17.811Z,993.21
2023-10-18T20:21:17.788Z,993.24
2023-10-18T20:26:17.646Z,993.17
2023-10-18T20:31:17.556Z,993.24
2023-10-18T20:36:17.497Z,993.02
2023-10-18T20:41:17.444Z,992.91
2023-10-18T20:46:17.430Z,992.98
2023-10-18T20:51:17.509Z,992.98
2023-10-18T20:56:17.237Z,992.90
2023-10-18T21:01:17.197Z,992.71
2023-10-18T21:06:17.125Z,992.48
2023-10-18T21:11:17.095Z,992.42
2023-10-18T21:16:17.111Z,992.31
2023-10-18T21:21:17.188Z,992.40
2023-10-18T21:26:16.866Z,992.31
2023-10-18T21:31:16.873Z,992.27
2023-10-18T21:36:16.757Z,992.09
2023-10-18T21:41:16.726Z,992.06
2023-10-18T21:46:16.672Z,991.91
2023-10-18T21:51:16.567Z,991.87
2023-10-18T21:56:16.715Z,991.75
2023-10-18T22:01:16.462Z,991.64
2023-10-18T22:06:16.342Z,991.67
2023-10-18T22:11:16.263Z,991.53
2023-10-18T22:16:16.366Z,991.50
2023-10-18T22:21:16.140Z,991.40
2023-10-18T22:26:16.458Z,991.28
2023-10-18T22:31:16.059Z,991.12
2023-10-18T22:36:15.986Z,991.28
2023-10-18T22:41:15.893Z,991.21
2023-10-18T22:46:15.998Z,991.03
2023-10-18T22:51:15.749Z,990.96
2023-10-18T22:56:15.690Z,990.82
2023-10-18T23:01:15.688Z,990.74
2023-10-18T23:06:15.551Z,990.76
2023-10-18T23:11:15.522Z,990.68
2023-10-18T23:16:15.469Z,990.64
2023-10-18T23:21:15.520Z,990.47
2023-10-18T23:26:15.307Z,990.29
2023-10-18T23:31:15.349Z,990.40
2023-10-18T23:36:15.214Z,990.16
2023-10-18T23:41:15.128Z,989.99
2023-10-18T23:46:15.123Z,989.91
2023-10-18T23:51:14.997Z,989.93
2023-10-18T23:56:14.928Z,989.68
